sensor_id;sensor_type;location;lat;lon;timestamp;P1;durP1;ratioP1;P2;durP2;ratioP2
37771;SDS011;23610;59.380;24.642;2024-01-30T00:02:16;19.95;;;5.65;;
37771;SDS011;23610;59.380;24.642;2024-01-30T00:07:32;17.33;;;5.68;;
37771;SDS011;23610;59.380;24.642;2024-01-30T00:13:02;14.77;;;5.57;;
37771;SDS011;23610;59.380;24.642;2024-01-30T00:18:18;15.27;;;5.38;;
37771;SDS011;23610;59.380;24.642;2024-01-30T00:23:48;24.88;;;6.03;;
37771;SDS011;23610;59.380;24.642;2024-01-30T00:29:04;18.27;;;5.40;;
37771;SDS011;23610;59.380;24.642;2024-01-30T00:34:41;15.63;;;5.25;;
37771;SDS011;23610;59.380;24.642;2024-01-30T00:39:57;18.77;;;5.47;;
37771;SDS011;23610;59.380;24.642;2024-01-30T00:45:27;21.10;;;5.88;;
37771;SDS011;23610;59.380;24.642;2024-01-30T00:50:43;17.80;;;5.68;;
37771;SDS011;23610;59.380;24.642;2024-01-30T00:56:13;12.43;;;5.72;;
37771;SDS011;23610;59.380;24.642;2024-01-30T01:01:32;15.13;;;5.57;;
37771;SDS011;23610;59.380;24.642;2024-01-30T01:07:02;16.73;;;5.85;;
37771;SDS011;23610;59.380;24.642;2024-01-30T01:12:18;15.05;;;5.93;;
37771;SDS011;23610;59.380;24.642;2024-01-30T01:17:48;15.27;;;6.13;;
37771;SDS011;23610;59.380;24.642;2024-01-30T01:23:04;16.17;;;5.40;;
37771;SDS011;23610;59.380;24.642;2024-01-30T01:28:34;16.98;;;5.80;;
37771;SDS011;23610;59.380;24.642;2024-01-30T01:33:50;23.63;;;7.53;;
37771;SDS011;23610;59.380;24.642;2024-01-30T01:39:20;16.50;;;6.15;;
37771;SDS011;23610;59.380;24.642;2024-01-30T01:44:40;17.60;;;6.50;;
37771;SDS011;23610;59.380;24.642;2024-01-30T01:50:10;14.10;;;5.57;;
37771;SDS011;23610;59.380;24.642;2024-01-30T01:55:27;22.98;;;5.95;;
37771;SDS011;23610;59.380;24.642;2024-01-30T02:00:59;22.17;;;8.13;;
37771;SDS011;23610;59.380;24.642;2024-01-30T02:06:15;28.77;;;8.27;;
37771;SDS011;23610;59.380;24.642;2024-01-30T02:11:45;34.28;;;7.35;;
37771;SDS011;23610;59.380;24.642;2024-01-30T02:17:01;20.27;;;6.28;;
37771;SDS011;23610;59.380;24.642;2024-01-30T02:22:32;19.52;;;6.90;;
37771;SDS011;23610;59.380;24.642;2024-01-30T02:27:50;17.63;;;6.85;;
37771;SDS011;23610;59.380;24.642;2024-01-30T02:33:20;22.02;;;6.97;;
37771;SDS011;23610;59.380;24.642;2024-01-30T02:38:38;19.85;;;7.13;;
37771;SDS011;23610;59.380;24.642;2024-01-30T02:44:08;22.65;;;7.50;;
37771;SDS011;23610;59.380;24.642;2024-01-30T02:49:24;21.95;;;7.03;;
37771;SDS011;23610;59.380;24.642;2024-01-30T02:54:54;16.25;;;6.18;;
37771;SDS011;23610;59.380;24.642;2024-01-30T03:00:10;19.33;;;6.78;;
37771;SDS011;23610;59.380;24.642;2024-01-30T03:05:41;23.60;;;7.72;;
37771;SDS011;23610;59.380;24.642;2024-01-30T03:10:57;17.10;;;6.53;;
37771;SDS011;23610;59.380;24.642;2024-01-30T03:16:27;14.45;;;5.95;;
37771;SDS011;23610;59.380;24.642;2024-01-30T03:21:43;19.58;;;6.45;;
37771;SDS011;23610;59.380;24.642;2024-01-30T03:27:13;15.23;;;5.82;;
37771;SDS011;23610;59.380;24.642;2024-01-30T03:32:29;19.00;;;6.22;;
37771;SDS011;23610;59.380;24.642;2024-01-30T03:37:59;12.40;;;5.82;;
37771;SDS011;23610;59.380;24.642;2024-01-30T03:43:15;12.93;;;6.15;;
37771;SDS011;23610;59.380;24.642;2024-01-30T03:48:45;13.75;;;6.15;;
37771;SDS011;23610;59.380;24.642;2024-01-30T03:54:01;13.55;;;5.57;;
37771;SDS011;23610;59.380;24.642;2024-01-30T03:59:31;19.88;;;5.72;;
37771;SDS011;23610;59.380;24.642;2024-01-30T04:04:47;19.38;;;5.55;;
37771;SDS011;23610;59.380;24.642;2024-01-30T04:10:17;17.80;;;5.55;;
37771;SDS011;23610;59.380;24.642;2024-01-30T04:15:33;20.75;;;5.85;;
37771;SDS011;23610;59.380;24.642;2024-01-30T04:21:03;14.95;;;5.95;;
37771;SDS011;23610;59.380;24.642;2024-01-30T04:26:19;26.40;;;7.25;;
37771;SDS011;23610;59.380;24.642;2024-01-30T04:31:49;16.00;;;6.25;;
37771;SDS011;23610;59.380;24.642;2024-01-30T04:37:05;18.02;;;7.85;;
37771;SDS011;23610;59.380;24.642;2024-01-30T04:42:35;20.00;;;6.93;;
37771;SDS011;23610;59.380;24.642;2024-01-30T04:47:51;15.68;;;6.80;;
37771;SDS011;23610;59.380;24.642;2024-01-30T04:53:21;19.90;;;6.82;;
37771;SDS011;23610;59.380;24.642;2024-01-30T04:58:37;15.95;;;6.05;;
37771;SDS011;23610;59.380;24.642;2024-01-30T05:04:07;18.25;;;7.07;;
37771;SDS011;23610;59.380;24.642;2024-01-30T05:09:31;16.13;;;6.53;;
37771;SDS011;23610;59.380;24.642;2024-01-30T05:15:00;28.13;;;6.63;;
37771;SDS011;23610;59.380;24.642;2024-01-30T05:20:16;19.17;;;6.57;;
37771;SDS011;23610;59.380;24.642;2024-01-30T05:25:49;24.27;;;6.43;;
37771;SDS011;23610;59.380;24.642;2024-01-30T05:31:05;24.75;;;7.97;;
37771;SDS011;23610;59.380;24.642;2024-01-30T05:36:35;20.23;;;7.47;;
37771;SDS011;23610;59.380;24.642;2024-01-30T05:41:51;17.10;;;7.88;;
37771;SDS011;23610;59.380;24.642;2024-01-30T05:47:21;18.35;;;7.22;;
37771;SDS011;23610;59.380;24.642;2024-01-30T05:52:37;27.05;;;8.45;;
37771;SDS011;23610;59.380;24.642;2024-01-30T05:58:07;45.42;;;11.90;;
37771;SDS011;23610;59.380;24.642;2024-01-30T06:03:23;22.00;;;9.45;;
37771;SDS011;23610;59.380;24.642;2024-01-30T06:08:53;25.70;;;8.65;;
37771;SDS011;23610;59.380;24.642;2024-01-30T06:14:10;23.02;;;7.60;;
37771;SDS011;23610;59.380;24.642;2024-01-30T06:19:40;16.48;;;7.18;;
37771;SDS011;23610;59.380;24.642;2024-01-30T06:24:56;15.82;;;7.75;;
37771;SDS011;23610;59.380;24.642;2024-01-30T06:30:26;25.15;;;10.85;;
37771;SDS011;23610;59.380;24.642;2024-01-30T06:35:42;25.00;;;11.02;;
37771;SDS011;23610;59.380;24.642;2024-01-30T06:41:12;29.33;;;12.10;;
37771;SDS011;23610;59.380;24.642;2024-01-30T06:46:28;23.13;;;11.02;;
37771;SDS011;23610;59.380;24.642;2024-01-30T06:51:58;21.95;;;11.68;;
37771;SDS011;23610;59.380;24.642;2024-01-30T06:57:14;29.83;;;12.40;;
37771;SDS011;23610;59.380;24.642;2024-01-30T07:02:44;33.58;;;13.13;;
37771;SDS011;23610;59.380;24.642;2024-01-30T07:08:00;20.58;;;11.18;;
37771;SDS011;23610;59.380;24.642;2024-01-30T07:13:30;29.17;;;11.05;;
37771;SDS011;23610;59.380;24.642;2024-01-30T07:18:46;20.98;;;11.68;;
37771;SDS011;23610;59.380;24.642;2024-01-30T07:24:16;29.05;;;11.73;;
37771;SDS011;23610;59.380;24.642;2024-01-30T07:29:32;21.67;;;11.07;;
37771;SDS011;23610;59.380;24.642;2024-01-30T07:35:02;24.70;;;11.57;;
37771;SDS011;23610;59.380;24.642;2024-01-30T07:40:38;35.47;;;12.52;;
37771;SDS011;23610;59.380;24.642;2024-01-30T07:46:08;19.73;;;10.77;;
37771;SDS011;23610;59.380;24.642;2024-01-30T07:51:24;19.48;;;10.32;;
37771;SDS011;23610;59.380;24.642;2024-01-30T07:56:54;26.42;;;9.40;;
37771;SDS011;23610;59.380;24.642;2024-01-30T08:02:11;28.85;;;9.80;;
37771;SDS011;23610;59.380;24.642;2024-01-30T08:07:41;28.13;;;11.20;;
37771;SDS011;23610;59.380;24.642;2024-01-30T08:12:57;37.35;;;12.43;;
37771;SDS011;23610;59.380;24.642;2024-01-30T08:18:27;28.55;;;12.98;;
37771;SDS011;23610;59.380;24.642;2024-01-30T08:23:43;26.05;;;10.02;;
37771;SDS011;23610;59.380;24.642;2024-01-30T08:29:13;33.25;;;9.82;;
37771;SDS011;23610;59.380;24.642;2024-01-30T08:40:19;27.73;;;10.48;;
37771;SDS011;23610;59.380;24.642;2024-01-30T08:45:35;22.50;;;10.02;;
37771;SDS011;23610;59.380;24.642;2024-01-30T08:51:05;30.45;;;10.90;;
37771;SDS011;23610;59.380;24.642;2024-01-30T08:56:23;26.88;;;11.57;;
37771;SDS011;23610;59.380;24.642;2024-01-30T09:01:53;31.83;;;12.68;;
37771;SDS011;23610;59.380;24.642;2024-01-30T09:07:19;21.63;;;10.15;;
37771;SDS011;23610;59.380;24.642;2024-01-30T09:12:49;29.23;;;11.40;;
37771;SDS011;23610;59.380;24.642;2024-01-30T09:18:05;24.23;;;10.52;;
37771;SDS011;23610;59.380;24.642;2024-01-30T09:23:35;28.48;;;11.35;;
37771;SDS011;23610;59.380;24.642;2024-01-30T09:28:51;24.85;;;11.10;;
37771;SDS011;23610;59.380;24.642;2024-01-30T09:34:21;29.30;;;12.52;;
37771;SDS011;23610;59.380;24.642;2024-01-30T09:39:37;37.42;;;12.63;;
37771;SDS011;23610;59.380;24.642;2024-01-30T09:45:07;28.15;;;13.02;;
37771;SDS011;23610;59.380;24.642;2024-01-30T09:50:24;32.45;;;13.85;;
37771;SDS011;23610;59.380;24.642;2024-01-30T09:55:55;33.10;;;12.27;;
37771;SDS011;23610;59.380;24.642;2024-01-30T10:01:12;27.98;;;12.65;;
37771;SDS011;23610;59.380;24.642;2024-01-30T10:06:42;29.85;;;11.68;;
37771;SDS011;23610;59.380;24.642;2024-01-30T10:11:58;36.10;;;15.18;;
37771;SDS011;23610;59.380;24.642;2024-01-30T10:17:28;35.42;;;13.63;;
37771;SDS011;23610;59.380;24.642;2024-01-30T10:22:44;29.23;;;13.88;;
37771;SDS011;23610;59.380;24.642;2024-01-30T10:28:14;30.38;;;12.73;;
37771;SDS011;23610;59.380;24.642;2024-01-30T10:33:30;33.22;;;12.75;;
37771;SDS011;23610;59.380;24.642;2024-01-30T10:39:00;29.90;;;14.40;;
37771;SDS011;23610;59.380;24.642;2024-01-30T10:44:18;41.58;;;14.65;;
37771;SDS011;23610;59.380;24.642;2024-01-30T10:49:50;38.65;;;13.57;;
37771;SDS011;23610;59.380;24.642;2024-01-30T10:55:21;34.17;;;13.65;;
37771;SDS011;23610;59.380;24.642;2024-01-30T11:00:40;27.67;;;13.27;;
37771;SDS011;23610;59.380;24.642;2024-01-30T11:06:10;27.67;;;12.60;;
37771;SDS011;23610;59.380;24.642;2024-01-30T11:11:28;26.23;;;12.25;;
37771;SDS011;23610;59.380;24.642;2024-01-30T11:16:58;34.67;;;13.05;;
37771;SDS011;23610;59.380;24.642;2024-01-30T11:22:14;35.17;;;13.55;;
37771;SDS011;23610;59.380;24.642;2024-01-30T11:27:44;33.10;;;12.20;;
37771;SDS011;23610;59.380;24.642;2024-01-30T11:38:38;29.88;;;12.20;;
37771;SDS011;23610;59.380;24.642;2024-01-30T11:43:54;24.35;;;12.32;;
37771;SDS011;23610;59.380;24.642;2024-01-30T11:49:24;32.33;;;13.07;;
37771;SDS011;23610;59.380;24.642;2024-01-30T11:54:40;26.20;;;12.38;;
37771;SDS011;23610;59.380;24.642;2024-01-30T12:00:16;28.30;;;13.43;;
37771;SDS011;23610;59.380;24.642;2024-01-30T12:05:34;35.15;;;12.63;;
37771;SDS011;23610;59.380;24.642;2024-01-30T12:11:06;29.73;;;13.18;;
37771;SDS011;23610;59.380;24.642;2024-01-30T12:16:22;30.58;;;12.00;;
37771;SDS011;23610;59.380;24.642;2024-01-30T12:21:58;33.30;;;12.13;;
37771;SDS011;23610;59.380;24.642;2024-01-30T12:27:15;28.95;;;13.38;;
37771;SDS011;23610;59.380;24.642;2024-01-30T12:32:45;41.65;;;16.40;;
37771;SDS011;23610;59.380;24.642;2024-01-30T12:38:04;23.02;;;11.75;;
37771;SDS011;23610;59.380;24.642;2024-01-30T12:43:34;30.20;;;11.98;;
37771;SDS011;23610;59.380;24.642;2024-01-30T12:48:50;27.77;;;12.07;;
37771;SDS011;23610;59.380;24.642;2024-01-30T12:54:20;23.70;;;12.82;;
37771;SDS011;23610;59.380;24.642;2024-01-30T12:59:37;22.75;;;11.73;;
37771;SDS011;23610;59.380;24.642;2024-01-30T13:05:07;32.22;;;14.20;;
37771;SDS011;23610;59.380;24.642;2024-01-30T13:10:23;25.42;;;12.98;;
37771;SDS011;23610;59.380;24.642;2024-01-30T13:15:53;28.30;;;12.10;;
37771;SDS011;23610;59.380;24.642;2024-01-30T13:21:09;29.77;;;13.48;;
37771;SDS011;23610;59.380;24.642;2024-01-30T13:26:39;30.27;;;14.52;;
37771;SDS011;23610;59.380;24.642;2024-01-30T13:31:55;30.98;;;14.52;;
37771;SDS011;23610;59.380;24.642;2024-01-30T13:37:25;24.23;;;12.32;;
37771;SDS011;23610;59.380;24.642;2024-01-30T13:42:41;26.10;;;14.20;;
37771;SDS011;23610;59.380;24.642;2024-01-30T13:48:11;31.40;;;15.60;;
37771;SDS011;23610;59.380;24.642;2024-01-30T13:53:27;28.02;;;13.52;;
37771;SDS011;23610;59.380;24.642;2024-01-30T13:58:57;40.83;;;16.40;;
37771;SDS011;23610;59.380;24.642;2024-01-30T14:04:13;34.50;;;15.93;;
37771;SDS011;23610;59.380;24.642;2024-01-30T14:09:43;35.15;;;16.33;;
37771;SDS011;23610;59.380;24.642;2024-01-30T14:14:59;39.53;;;15.65;;
37771;SDS011;23610;59.380;24.642;2024-01-30T14:20:42;33.50;;;17.95;;
37771;SDS011;23610;59.380;24.642;2024-01-30T14:25:58;51.85;;;23.73;;
37771;SDS011;23610;59.380;24.642;2024-01-30T14:31:28;77.68;;;34.08;;
37771;SDS011;23610;59.380;24.642;2024-01-30T14:36:44;70.50;;;30.95;;
37771;SDS011;23610;59.380;24.642;2024-01-30T14:42:14;45.67;;;21.38;;
37771;SDS011;23610;59.380;24.642;2024-01-30T14:47:30;58.45;;;24.55;;
37771;SDS011;23610;59.380;24.642;2024-01-30T14:53:00;43.75;;;20.92;;
37771;SDS011;23610;59.380;24.642;2024-01-30T14:58:16;50.35;;;21.10;;
37771;SDS011;23610;59.380;24.642;2024-01-30T15:03:46;48.50;;;24.20;;
37771;SDS011;23610;59.380;24.642;2024-01-30T15:09:02;47.13;;;20.15;;
37771;SDS011;23610;59.380;24.642;2024-01-30T15:14:32;45.20;;;21.08;;
37771;SDS011;23610;59.380;24.642;2024-01-30T15:19:48;47.67;;;20.80;;
37771;SDS011;23610;59.380;24.642;2024-01-30T15:25:18;45.88;;;20.77;;
37771;SDS011;23610;59.380;24.642;2024-01-30T15:30:34;49.45;;;21.58;;
37771;SDS011;23610;59.380;24.642;2024-01-30T15:36:05;39.70;;;20.80;;
37771;SDS011;23610;59.380;24.642;2024-01-30T15:41:21;35.25;;;18.58;;
37771;SDS011;23610;59.380;24.642;2024-01-30T15:46:51;37.53;;;19.10;;
37771;SDS011;23610;59.380;24.642;2024-01-30T15:52:07;40.42;;;16.02;;
37771;SDS011;23610;59.380;24.642;2024-01-30T15:57:39;30.75;;;16.50;;
37771;SDS011;23610;59.380;24.642;2024-01-30T16:02:55;34.33;;;17.77;;
37771;SDS011;23610;59.380;24.642;2024-01-30T16:08:24;53.30;;;23.42;;
37771;SDS011;23610;59.380;24.642;2024-01-30T16:13:41;39.08;;;19.70;;
37771;SDS011;23610;59.380;24.642;2024-01-30T16:19:12;29.80;;;17.25;;
37771;SDS011;23610;59.380;24.642;2024-01-30T16:24:29;30.85;;;15.73;;
37771;SDS011;23610;59.380;24.642;2024-01-30T16:29:59;36.70;;;18.63;;
37771;SDS011;23610;59.380;24.642;2024-01-30T16:35:15;46.88;;;20.75;;
37771;SDS011;23610;59.380;24.642;2024-01-30T16:40:59;46.45;;;19.10;;
37771;SDS011;23610;59.380;24.642;2024-01-30T16:46:16;38.60;;;17.77;;
37771;SDS011;23610;59.380;24.642;2024-01-30T16:51:45;40.85;;;18.08;;
37771;SDS011;23610;59.380;24.642;2024-01-30T16:57:16;33.30;;;15.77;;
37771;SDS011;23610;59.380;24.642;2024-01-30T17:02:33;40.75;;;18.42;;
37771;SDS011;23610;59.380;24.642;2024-01-30T17:08:03;40.50;;;16.88;;
37771;SDS011;23610;59.380;24.642;2024-01-30T17:13:19;42.65;;;17.27;;
37771;SDS011;23610;59.380;24.642;2024-01-30T17:18:48;42.30;;;18.92;;
37771;SDS011;23610;59.380;24.642;2024-01-30T17:24:05;44.25;;;20.55;;
37771;SDS011;23610;59.380;24.642;2024-01-30T17:29:47;47.20;;;20.80;;
37771;SDS011;23610;59.380;24.642;2024-01-30T17:35:04;65.20;;;26.85;;
37771;SDS011;23610;59.380;24.642;2024-01-30T17:40:33;47.92;;;22.92;;
37771;SDS011;23610;59.380;24.642;2024-01-30T17:45:50;52.85;;;26.23;;
37771;SDS011;23610;59.380;24.642;2024-01-30T17:51:20;40.63;;;18.42;;
37771;SDS011;23610;59.380;24.642;2024-01-30T17:56:37;43.47;;;18.50;;
37771;SDS011;23610;59.380;24.642;2024-01-30T18:02:06;40.60;;;18.35;;
37771;SDS011;23610;59.380;24.642;2024-01-30T18:07:23;37.85;;;17.90;;
37771;SDS011;23610;59.380;24.642;2024-01-30T18:12:52;47.70;;;18.67;;
37771;SDS011;23610;59.380;24.642;2024-01-30T18:18:11;36.95;;;17.70;;
37771;SDS011;23610;59.380;24.642;2024-01-30T18:23:45;34.75;;;18.00;;
37771;SDS011;23610;59.380;24.642;2024-01-30T18:29:02;47.42;;;18.55;;
37771;SDS011;23610;59.380;24.642;2024-01-30T18:34:31;54.78;;;21.83;;
37771;SDS011;23610;59.380;24.642;2024-01-30T18:39:48;56.47;;;23.50;;
37771;SDS011;23610;59.380;24.642;2024-01-30T18:45:17;45.50;;;20.48;;
37771;SDS011;23610;59.380;24.642;2024-01-30T18:50:35;51.88;;;21.80;;
37771;SDS011;23610;59.380;24.642;2024-01-30T18:56:05;48.78;;;21.80;;
37771;SDS011;23610;59.380;24.642;2024-01-30T19:01:22;45.33;;;20.73;;
37771;SDS011;23610;59.380;24.642;2024-01-30T19:06:51;43.05;;;20.38;;
37771;SDS011;23610;59.380;24.642;2024-01-30T19:12:08;44.30;;;20.75;;
37771;SDS011;23610;59.380;24.642;2024-01-30T19:17:37;55.53;;;21.55;;
37771;SDS011;23610;59.380;24.642;2024-01-30T19:22:55;44.58;;;21.58;;
37771;SDS011;23610;59.380;24.642;2024-01-30T19:28:24;40.42;;;19.80;;
37771;SDS011;23610;59.380;24.642;2024-01-30T19:33:41;48.92;;;21.30;;
37771;SDS011;23610;59.380;24.642;2024-01-30T19:39:10;49.83;;;21.33;;
37771;SDS011;23610;59.380;24.642;2024-01-30T19:44:28;52.25;;;21.15;;
37771;SDS011;23610;59.380;24.642;2024-01-30T19:49:59;50.58;;;21.73;;
37771;SDS011;23610;59.380;24.642;2024-01-30T19:55:16;50.63;;;22.00;;
37771;SDS011;23610;59.380;24.642;2024-01-30T20:00:46;47.53;;;18.98;;
37771;SDS011;23610;59.380;24.642;2024-01-30T20:06:05;47.03;;;20.20;;
37771;SDS011;23610;59.380;24.642;2024-01-30T20:11:35;55.53;;;22.73;;
37771;SDS011;23610;59.380;24.642;2024-01-30T20:16:51;48.88;;;22.60;;
37771;SDS011;23610;59.380;24.642;2024-01-30T20:22:24;49.85;;;22.75;;
37771;SDS011;23610;59.380;24.642;2024-01-30T20:27:41;48.33;;;20.23;;
37771;SDS011;23610;59.380;24.642;2024-01-30T20:33:13;53.95;;;22.88;;
37771;SDS011;23610;59.380;24.642;2024-01-30T20:38:30;64.32;;;27.17;;
37771;SDS011;23610;59.380;24.642;2024-01-30T20:43:59;52.30;;;23.17;;
37771;SDS011;23610;59.380;24.642;2024-01-30T20:49:16;52.13;;;22.70;;
37771;SDS011;23610;59.380;24.642;2024-01-30T20:54:45;58.88;;;25.10;;
37771;SDS011;23610;59.380;24.642;2024-01-30T21:00:02;62.20;;;25.85;;
37771;SDS011;23610;59.380;24.642;2024-01-30T21:05:34;55.00;;;22.73;;
37771;SDS011;23610;59.380;24.642;2024-01-30T21:10:52;46.38;;;22.67;;
37771;SDS011;23610;59.380;24.642;2024-01-30T21:16:23;52.25;;;22.05;;
37771;SDS011;23610;59.380;24.642;2024-01-30T21:21:52;49.47;;;22.42;;
37771;SDS011;23610;59.380;24.642;2024-01-30T21:27:08;51.55;;;22.20;;
37771;SDS011;23610;59.380;24.642;2024-01-30T21:32:38;53.63;;;20.77;;
37771;SDS011;23610;59.380;24.642;2024-01-30T21:37:54;62.15;;;22.70;;
37771;SDS011;23610;59.380;24.642;2024-01-30T21:43:25;66.13;;;23.23;;
37771;SDS011;23610;59.380;24.642;2024-01-30T21:48:41;55.88;;;24.05;;
37771;SDS011;23610;59.380;24.642;2024-01-30T21:54:11;62.65;;;24.30;;
37771;SDS011;23610;59.380;24.642;2024-01-30T21:59:28;55.40;;;22.55;;
37771;SDS011;23610;59.380;24.642;2024-01-30T22:04:58;59.40;;;23.05;;
37771;SDS011;23610;59.380;24.642;2024-01-30T22:10:14;48.35;;;21.00;;
37771;SDS011;23610;59.380;24.642;2024-01-30T22:15:44;60.75;;;23.10;;
37771;SDS011;23610;59.380;24.642;2024-01-30T22:21:14;55.28;;;21.52;;
37771;SDS011;23610;59.380;24.642;2024-01-30T22:26:31;58.45;;;24.13;;
37771;SDS011;23610;59.380;24.642;2024-01-30T22:32:07;54.72;;;22.80;;
37771;SDS011;23610;59.380;24.642;2024-01-30T22:37:23;58.22;;;24.30;;
37771;SDS011;23610;59.380;24.642;2024-01-30T22:42:53;52.42;;;20.63;;
37771;SDS011;23610;59.380;24.642;2024-01-30T22:48:09;62.20;;;23.23;;
37771;SDS011;23610;59.380;24.642;2024-01-30T22:53:39;47.78;;;19.55;;
37771;SDS011;23610;59.380;24.642;2024-01-30T22:59:00;49.42;;;20.75;;
37771;SDS011;23610;59.380;24.642;2024-01-30T23:04:30;50.33;;;20.50;;
37771;SDS011;23610;59.380;24.642;2024-01-30T23:09:56;43.53;;;19.02;;
37771;SDS011;23610;59.380;24.642;2024-01-30T23:15:32;48.13;;;20.48;;
37771;SDS011;23610;59.380;24.642;2024-01-30T23:20:49;43.35;;;19.40;;
37771;SDS011;23610;59.380;24.642;2024-01-30T23:26:19;39.20;;;18.75;;
37771;SDS011;23610;59.380;24.642;2024-01-30T23:31:39;41.40;;;18.70;;
37771;SDS011;23610;59.380;24.642;2024-01-30T23:37:09;38.28;;;17.02;;
37771;SDS011;23610;59.380;24.642;2024-01-30T23:42:39;39.80;;;18.23;;
37771;SDS011;23610;59.380;24.642;2024-01-30T23:48:12;41.55;;;17.55;;
37771;SDS011;23610;59.380;24.642;2024-01-30T23:53:28;35.58;;;17.25;;
37771;SDS011;23610;59.380;24.642;2024-01-30T23:58:58;40.30;;;16.20;;
